Time;durP1;ratioP1;P1;durP2;ratioP2;P2;SDS_P1;SDS_P2;PMS_P1;PMS_P2;Temp;Humidity;BMP_temperature;BMP_pressure;BME280_temperature;BME280_humidity;BME280_pressure;Samples;Min_cycle;Max_cycle;Signal;HPM_P1;HPM_P2
2022/11/13 00:00:01;;;;;;;8.88;5.03;;;;;;;10.13;83.82;101328.78;3131603;28;20045;-69
2022/11/13 00:01:33;;;;;;;11.40;4.95;;;;;;;10.13;83.51;101330.53;3132794;28;20061;-69
2022/11/13 00:03:05;;;;;;;9.82;5.40;;;;;;;10.13;83.53;101328.78;3121858;28;20053;-71
2022/11/13 00:04:37;;;;;;;9.82;4.75;;;;;;;10.14;83.70;101327.03;3127369;28;20045;-70
2022/11/13 00:06:09;;;;;;;8.63;5.03;;;;;;;10.13;83.46;101328.78;3131683;28;20049;-69
2022/11/13 00:07:41;;;;;;;9.07;4.50;;;;;;;9.93;83.43;101292.72;3121550;28;20068;-70
2022/11/13 00:09:12;;;;;;;8.70;5.03;;;;;;;10.14;83.73;101324.44;3129612;28;20048;-70
2022/11/13 00:10:43;;;;;;;10.13;5.13;;;;;;;10.14;83.35;101327.88;3129613;28;20049;-70
2022/11/13 00:12:15;;;;;;;8.77;5.00;;;;;;;10.16;83.37;101328.72;3130833;28;20152;-70
2022/11/13 00:13:49;;;;;;;9.57;5.00;;;;;;;10.19;83.20;101326.06;3128397;28;20083;-70
2022/11/13 00:15:21;;;;;;;10.02;5.55;;;;;;;10.19;83.05;101328.66;3131523;28;20057;-70
2022/11/13 00:16:53;;;;;;;8.95;5.65;;;;;;;10.03;82.99;101298.63;3128705;28;20048;-70
2022/11/13 00:18:24;;;;;;;9.23;5.45;;;;;;;10.21;83.22;101328.66;3132780;28;20107;-70
2022/11/13 00:19:55;;;;;;;8.95;5.30;;;;;;;10.20;83.01;101330.41;3127862;28;20377;-70
2022/11/13 00:21:27;;;;;;;10.23;5.93;;;;;;;10.23;83.39;101327.75;3126296;28;20102;-69
2022/11/13 00:22:58;;;;;;;8.32;4.85;;;;;;;10.20;82.93;101319.09;3125974;28;20101;-70
2022/11/13 00:24:30;;;;;;;10.23;5.72;;;;;;;10.21;83.04;101326.91;3130210;28;20118;-71
2022/11/13 00:26:09;;;;;;;8.73;4.75;;;;;;;10.16;83.38;101318.31;3129691;28;20537;-69
2022/11/13 00:27:41;;;;;;;9.57;5.57;;;;;;;10.24;83.20;101328.59;3129482;28;20478;-69
2022/11/13 00:29:14;;;;;;;8.25;5.22;;;;;;;10.24;82.85;101332.03;3129359;28;20057;-70
2022/11/13 00:30:46;;;;;;;9.15;5.13;;;;;;;10.23;83.23;101332.94;3124012;28;20049;-69
2022/11/13 00:32:19;;;;;;;9.77;4.85;;;;;;;10.21;83.23;101324.28;3126002;28;20049;-69
2022/11/13 00:33:51;;;;;;;8.70;5.68;;;;;;;10.19;83.31;101322.59;3129426;28;20430;-69
2022/11/13 00:35:23;;;;;;;11.38;5.80;;;;;;;10.16;82.93;101320.91;3128041;28;20504;-69
2022/11/13 00:36:53;;;;;;;9.00;4.97;;;;;;;10.20;82.91;101319.09;3129273;28;20053;-69
2022/11/13 00:38:25;;;;;;;8.98;5.13;;;;;;;10.24;83.28;101326.00;3121880;28;20692;-69
2022/11/13 00:39:57;;;;;;;9.05;5.47;;;;;;;10.22;83.14;101319.94;3122905;28;20508;-70
2022/11/13 00:41:29;;;;;;;8.30;4.75;;;;;;;10.20;83.22;101322.59;3129013;28;20057;-69
2022/11/13 00:43:01;;;;;;;8.70;5.28;;;;;;;10.15;83.19;101315.75;3128901;28;20114;-69
2022/11/13 00:44:34;;;;;;;13.10;5.72;;;;;;;10.14;83.04;101317.47;3122712;28;21341;-69
2022/11/13 00:46:07;;;;;;;9.50;4.65;;;;;;;10.18;83.38;101331.31;3123235;28;20049;-69
2022/11/13 00:47:38;;;;;;;8.38;4.70;;;;;;;10.18;83.12;101323.50;3130581;28;20477;-69
2022/11/13 00:49:11;;;;;;;8.85;5.53;;;;;;;10.19;83.37;101320.84;3129321;28;20553;-69
2022/11/13 00:50:43;;;;;;;9.98;5.28;;;;;;;10.21;83.13;101320.84;3133150;28;20557;-71
2022/11/13 00:52:14;;;;;;;8.15;4.97;;;;;;;10.25;83.01;101318.13;3130399;28;20230;-68
2022/11/13 00:53:46;;;;;;;7.85;4.70;;;;;;;10.28;83.38;101325.06;3130485;28;20052;-70
2022/11/13 00:55:18;;;;;;;8.32;4.95;;;;;;;10.29;83.27;101320.72;3127137;28;20052;-69
2022/11/13 00:56:50;;;;;;;8.23;5.00;;;;;;;10.31;82.96;101322.41;3129255;28;20712;-69
2022/11/13 00:58:22;;;;;;;11.30;5.57;;;;;;;10.29;83.21;101323.31;3130015;28;20045;-68
2022/11/13 00:59:55;;;;;;;11.25;6.20;;;;;;;10.19;83.04;101307.84;3130475;28;20056;-69
2022/11/13 01:01:27;;;;;;;8.23;5.18;;;;;;;9.98;83.26;101282.22;3131019;28;20065;-69
2022/11/13 01:02:59;;;;;;;8.43;5.38;;;;;;;10.23;83.28;101319.03;3132942;28;20059;-68
2022/11/13 01:04:31;;;;;;;12.85;5.68;;;;;;;10.19;83.24;101313.03;3127156;28;20503;-69
2022/11/13 01:06:10;;;;;;;11.00;6.03;;;;;;;10.27;83.27;101319.91;3128557;28;20057;-69
2022/11/13 01:07:41;;;;;;;10.35;5.63;;;;;;;10.31;83.54;101327.59;3129929;28;20048;-69
2022/11/13 01:09:13;;;;;;;12.10;5.95;;;;;;;10.31;83.57;101332.81;3132464;28;20056;-69
2022/11/13 01:10:47;;;;;;;11.93;6.18;;;;;;;10.28;83.57;101321.59;3131371;28;20041;-69
2022/11/13 01:12:19;;;;;;;9.15;5.82;;;;;;;10.32;83.59;101323.25;3130043;28;20140;-69
2022/11/13 01:13:52;;;;;;;10.23;6.55;;;;;;;10.33;83.43;101325.00;3125510;28;20714;-69
2022/11/13 01:15:25;;;;;;;9.82;5.93;;;;;;;10.17;83.55;101304.41;3119705;28;20060;-69
2022/11/13 01:16:57;;;;;;;11.02;5.97;;;;;;;10.33;83.52;101323.22;3121679;28;20056;-69
2022/11/13 01:18:29;;;;;;;11.88;6.40;;;;;;;10.37;83.27;101331.84;3123712;28;20288;-69
2022/11/13 01:20:01;;;;;;;12.43;6.93;;;;;;;10.35;83.73;101323.19;3114564;28;20136;-69
2022/11/13 01:21:33;;;;;;;11.07;6.25;;;;;;;10.36;83.25;101328.38;3117528;28;20151;-68
2022/11/13 01:23:04;;;;;;;13.68;7.43;;;;;;;10.36;83.27;101324.91;3116896;28;20087;-69
2022/11/13 01:24:36;;;;;;;10.77;5.68;;;;;;;10.34;83.59;101319.72;3115591;28;20098;-69
2022/11/13 01:26:09;;;;;;;11.18;6.03;;;;;;;10.29;83.87;101318.97;3116426;28;20589;-69
2022/11/13 01:27:41;;;;;;;10.25;6.30;;;;;;;10.29;83.55;101321.56;3116919;28;20061;-69
2022/11/13 01:29:12;;;;;;;9.57;6.18;;;;;;;10.27;83.63;101323.34;3118544;28;20055;-69
2022/11/13 01:30:46;;;;;;;10.45;6.88;;;;;;;10.25;83.98;101328.53;3122360;28;20127;-69
2022/11/13 01:32:18;;;;;;;10.88;6.90;;;;;;;10.24;83.85;101326.00;3122824;28;20060;-69
2022/11/13 01:33:50;;;;;;;10.05;6.28;;;;;;;9.88;83.90;101259.84;3118500;28;20135;-68
2022/11/13 01:35:21;;;;;;;10.32;6.53;;;;;;;10.19;84.12;101320.84;3116676;28;20059;-69
2022/11/13 01:36:53;;;;;;;10.02;6.18;;;;;;;10.18;84.09;101316.53;3117167;28;20088;-69
2022/11/13 01:38:25;;;;;;;10.80;6.30;;;;;;;10.18;83.99;101315.69;3119251;28;20873;-69
2022/11/13 01:39:57;;;;;;;13.93;6.10;;;;;;;10.20;84.36;101316.50;3121079;28;20049;-68
2022/11/13 01:41:31;;;;;;;11.38;6.35;;;;;;;10.18;84.17;101316.53;3120332;28;20067;-69
2022/11/13 01:43:20;;;;;;;12.48;7.10;;;;;;;10.17;84.32;101312.22;3117719;28;20458;-69
2022/11/13 01:44:54;;;;;;;10.05;6.18;;;;;;;10.14;84.41;101314.88;3120903;28;20049;-69
2022/11/13 01:46:29;;;;;;;10.23;6.00;;;;;;;10.15;84.21;101311.41;3118987;28;20583;-69
2022/11/13 01:48:00;;;;;;;11.73;6.10;;;;;;;10.15;84.34;101311.41;3116758;28;20045;-69
2022/11/13 01:49:37;;;;;;;12.85;6.38;;;;;;;10.16;84.36;101313.09;3116841;28;20123;-69
2022/11/13 01:51:11;;;;;;;11.10;6.10;;;;;;;10.18;84.35;101307.88;3120703;28;20049;-69
2022/11/13 01:52:43;;;;;;;16.30;7.40;;;;;;;10.18;84.53;101306.13;3118977;28;20057;-70
2022/11/13 01:54:18;;;;;;;10.10;5.90;;;;;;;10.20;84.41;101306.97;3120014;28;20138;-70
2022/11/13 01:55:50;;;;;;;12.48;6.53;;;;;;;10.20;84.40;101306.97;3121408;28;20560;-68
2022/11/13 01:57:24;;;;;;;10.93;6.38;;;;;;;10.18;84.21;101300.94;3123152;28;20569;-69
2022/11/13 01:59:02;;;;;;;11.77;5.93;;;;;;;10.17;84.48;101303.53;3112108;28;20053;-69
2022/11/13 02:00:34;;;;;;;11.65;6.07;;;;;;;10.18;84.59;101303.53;3119101;28;20460;-69
2022/11/13 02:02:08;;;;;;;12.13;6.87;;;;;;;10.19;84.68;101307.84;3116580;28;20578;-69
2022/11/13 02:03:39;;;;;;;11.90;6.15;;;;;;;10.18;84.82;101303.53;3118175;28;20307;-69
2022/11/13 02:05:11;;;;;;;11.95;5.97;;;;;;;10.17;84.50;101311.34;3121139;28;20141;-68
2022/11/13 02:06:48;;;;;;;15.10;6.35;;;;;;;9.85;84.51;101249.50;3114014;28;20592;-69
2022/11/13 02:08:20;;;;;;;14.93;6.78;;;;;;;10.08;84.76;101295.91;3119022;28;20153;-69
2022/11/13 02:09:55;;;;;;;12.73;6.50;;;;;;;10.16;84.97;101304.44;3118976;28;20594;-68
2022/11/13 02:11:26;;;;;;;14.38;6.78;;;;;;;10.13;84.71;101304.50;3117632;28;20053;-69
2022/11/13 02:12:58;;;;;;;9.35;5.68;;;;;;;10.12;84.74;101305.41;3119820;28;20065;-69
2022/11/13 02:14:30;;;;;;;11.80;6.55;;;;;;;10.12;85.17;101311.47;3121468;28;20486;-68
2022/11/13 02:16:01;;;;;;;9.95;5.88;;;;;;;10.11;85.10;101303.66;3115031;28;20044;-69
2022/11/13 02:17:45;;;;;;;11.10;6.38;;;;;;;9.73;85.17;101243.66;3121374;28;20549;-69
2022/11/13 02:19:22;;;;;;;10.50;6.18;;;;;;;10.11;85.15;101307.13;3121375;28;20061;-68
2022/11/13 02:21:01;;;;;;;13.45;5.47;;;;;;;10.05;85.02;101293.38;3115817;28;20053;-68
2022/11/13 02:22:38;;;;;;;16.52;6.47;;;;;;;10.09;85.05;101297.66;3118748;28;20115;-69
2022/11/13 02:24:21;;;;;;;14.80;6.85;;;;;;;10.11;85.24;101295.84;3118295;28;20049;-69
2022/11/13 02:25:54;;;;;;;13.82;7.43;;;;;;;10.10;85.14;101299.34;3121363;28;20052;-68
2022/11/13 02:27:30;;;;;;;14.13;6.85;;;;;;;10.02;85.58;101289.09;3122561;28;20584;-68
2022/11/13 02:29:03;;;;;;;11.40;6.45;;;;;;;10.04;85.59;101287.31;3118675;28;20142;-68
2022/11/13 02:30:36;;;;;;;12.68;6.20;;;;;;;10.09;85.29;101290.69;3118677;28;20092;-69
2022/11/13 02:32:08;;;;;;;12.32;6.13;;;;;;;10.10;85.37;101287.19;3115111;28;20083;-69
2022/11/13 02:33:40;;;;;;;10.70;6.40;;;;;;;10.12;85.54;101290.63;3118194;28;20080;-69
2022/11/13 02:35:13;;;;;;;12.38;6.43;;;;;;;10.13;85.34;101294.94;3120884;28;20124;-69
2022/11/13 02:36:45;;;;;;;10.48;6.18;;;;;;;10.09;85.20;101285.50;3118737;28;20700;-69
2022/11/13 02:38:17;;;;;;;10.93;6.75;;;;;;;10.13;85.45;101291.50;3121765;28;20049;-69
2022/11/13 02:39:49;;;;;;;10.05;5.82;;;;;;;10.13;85.46;101288.88;3116423;28;20057;-69
2022/11/13 02:41:21;;;;;;;13.50;6.93;;;;;;;10.14;85.60;101295.78;3118175;28;20460;-67
2022/11/13 02:42:54;;;;;;;10.57;6.25;;;;;;;10.14;85.21;101299.25;3112837;28;20160;-69
2022/11/13 02:44:26;;;;;;;10.02;5.55;;;;;;;10.06;85.64;101282.06;3117153;28;20053;-68
2022/11/13 02:45:57;;;;;;;11.18;5.60;;;;;;;10.11;85.45;101288.91;3119375;28;20271;-69
2022/11/13 02:47:29;;;;;;;12.43;6.32;;;;;;;10.13;85.32;101291.50;3123816;28;20060;-69
2022/11/13 02:49:01;;;;;;;11.07;6.25;;;;;;;10.14;85.48;101294.03;3120610;28;20049;-69
2022/11/13 02:50:34;;;;;;;12.32;6.88;;;;;;;10.20;85.09;101299.16;3114668;28;20045;-69
2022/11/13 02:52:06;;;;;;;12.10;6.43;;;;;;;10.20;85.32;101298.28;3118576;28;20935;-69
2022/11/13 02:53:37;;;;;;;14.43;6.22;;;;;;;10.20;85.33;101296.56;3121235;28;20266;-68
2022/11/13 02:55:11;;;;;;;10.15;6.00;;;;;;;10.25;85.34;101297.31;3114490;28;20049;-69
2022/11/13 02:56:42;;;;;;;13.23;6.55;;;;;;;10.29;85.12;101302.47;3116640;28;20508;-69
2022/11/13 02:58:14;;;;;;;12.52;6.25;;;;;;;10.30;85.39;101302.47;3117760;28;20115;-68
2022/11/13 02:59:46;;;;;;;12.10;6.28;;;;;;;10.35;85.09;101299.75;3122619;28;20371;-69
2022/11/13 03:01:17;;;;;;;14.43;6.68;;;;;;;10.37;84.82;101300.59;3123675;28;20081;-68
2022/11/13 03:02:49;;;;;;;11.65;6.43;;;;;;;10.34;84.83;101296.28;3124161;28;20128;-68
2022/11/13 03:04:21;;;;;;;13.20;6.50;;;;;;;10.25;84.70;101280.81;3122537;28;20063;-69
2022/11/13 03:05:53;;;;;;;10.38;5.93;;;;;;;10.32;84.83;101303.28;3120286;28;20419;-69
2022/11/13 03:07:25;;;;;;;11.10;6.03;;;;;;;10.31;84.64;101287.69;3122339;28;20670;-69
2022/11/13 03:08:57;;;;;;;11.68;5.90;;;;;;;10.29;84.57;101294.66;3124309;28;20056;-69
2022/11/13 03:10:30;;;;;;;9.63;5.75;;;;;;;10.29;84.32;101292.06;3124026;28;20060;-69
2022/11/13 03:12:02;;;;;;;;;;;;;;;10.22;84.04;101296.50;3119294;28;20513;-69
2022/11/13 03:13:34;;;;;;;10.02;5.60;;;;;;;10.21;84.40;101294.81;3119939;28;20404;-69
2022/11/13 03:15:06;;;;;;;11.57;6.40;;;;;;;9.90;84.08;101240.72;3121315;28;20057;-68
2022/11/13 03:16:38;;;;;;;11.18;6.47;;;;;;;10.21;84.25;101287.00;3114197;28;20044;-70
2022/11/13 03:18:15;;;;;;;11.63;6.65;;;;;;;10.23;84.05;101293.00;3122792;28;20050;-68
2022/11/13 03:19:47;;;;;;;10.88;6.32;;;;;;;10.21;84.10;101285.25;3130201;28;20045;-68
2022/11/13 03:21:19;;;;;;;10.93;5.97;;;;;;;10.24;84.30;101293.00;3125592;28;20060;-69
2022/11/13 03:22:51;;;;;;;10.32;6.00;;;;;;;10.21;83.89;101282.66;3121571;28;20049;-69
2022/11/13 03:24:22;;;;;;;12.93;7.25;;;;;;;10.27;84.28;101288.66;3129641;28;20109;-68
2022/11/13 03:25:55;;;;;;;12.20;6.22;;;;;;;10.27;83.93;101286.06;3130756;28;20202;-68
2022/11/13 03:27:26;;;;;;;14.68;6.70;;;;;;;10.25;84.24;101284.28;3130000;28;20506;-69
2022/11/13 03:28:58;;;;;;;12.25;6.10;;;;;;;10.27;83.94;101289.50;3131473;28;20099;-69
2022/11/13 03:30:30;;;;;;;15.00;7.10;;;;;;;10.25;84.23;101283.44;3122222;28;20099;-69
2022/11/13 03:32:02;;;;;;;12.57;6.82;;;;;;;10.28;84.28;101290.34;3125214;28;20049;-69
2022/11/13 03:33:34;;;;;;;14.25;7.78;;;;;;;10.23;83.99;101278.28;3131424;28;20444;-69
2022/11/13 03:35:07;;;;;;;17.50;9.73;;;;;;;10.00;83.96;101246.63;3123015;28;20049;-70
2022/11/13 03:36:39;;;;;;;;;;;;;;;10.18;84.12;101290.50;3122316;28;20148;-69
2022/11/13 03:38:11;;;;;;;12.40;6.93;;;;;;;10.17;84.44;101291.38;3121505;28;20481;-68
2022/11/13 03:39:42;;;;;;;14.43;7.45;;;;;;;10.16;84.08;101279.25;3131726;28;20163;-69
2022/11/13 03:41:16;;;;;;;10.88;6.75;;;;;;;10.20;84.51;101293.06;3124092;28;20079;-69
2022/11/13 03:42:47;;;;;;;12.95;6.20;;;;;;;10.17;84.09;101288.78;3128747;28;20053;-69
2022/11/13 03:44:19;;;;;;;14.90;7.13;;;;;;;10.18;84.06;101290.50;3127004;28;20142;-69
2022/11/13 03:45:50;;;;;;;12.88;6.95;;;;;;;10.20;84.21;101288.75;3126188;28;20052;-70
2022/11/13 03:47:22;;;;;;;14.57;7.20;;;;;;;10.20;84.34;101286.16;3125824;28;20101;-69
2022/11/13 03:48:54;;;;;;;13.80;7.70;;;;;;;10.22;84.20;101286.09;3126525;28;20110;-69
2022/11/13 03:50:25;;;;;;;14.63;7.75;;;;;;;10.22;83.88;101296.50;3131417;28;20056;-68
2022/11/13 03:51:57;;;;;;;17.05;8.60;;;;;;;10.18;84.17;101289.66;3128209;28;20052;-69
2022/11/13 03:53:28;;;;;;;13.15;7.72;;;;;;;10.20;83.99;101293.06;3130518;28;20161;-69
2022/11/13 03:54:59;;;;;;;17.45;8.07;;;;;;;10.17;84.00;101288.78;3123229;28;20463;-68
2022/11/13 03:56:32;;;;;;;13.95;7.63;;;;;;;10.21;84.21;101293.06;3130707;28;20167;-68
2022/11/13 03:58:04;;;;;;;13.40;7.55;;;;;;;10.19;83.76;101286.16;3130147;28;20055;-69
2022/11/13 03:59:36;;;;;;;13.73;6.95;;;;;;;10.19;83.79;101284.41;3132062;28;20041;-68
2022/11/13 04:01:07;;;;;;;12.05;6.72;;;;;;;10.20;83.95;101285.25;3132267;28;20056;-68
2022/11/13 04:02:40;;;;;;;10.43;6.35;;;;;;;10.21;84.17;101280.03;3131635;28;20052;-69
2022/11/13 04:04:11;;;;;;;12.77;7.38;;;;;;;10.22;83.71;101280.88;3132122;28;20049;-70
2022/11/13 04:05:43;;;;;;;14.07;7.75;;;;;;;10.21;83.75;101280.03;3132468;28;20082;-69
2022/11/13 04:07:15;;;;;;;14.70;7.60;;;;;;;10.25;84.11;101283.44;3131384;28;20727;-69
2022/11/13 04:08:47;;;;;;;15.95;7.68;;;;;;;10.26;84.20;101282.53;3131059;28;20132;-69
2022/11/13 04:10:19;;;;;;;12.77;7.13;;;;;;;10.27;84.17;101280.84;3131964;28;20111;-69
2022/11/13 04:11:52;;;;;;;15.13;8.20;;;;;;;10.28;84.17;101285.16;3127421;28;20061;-68
2022/11/13 04:13:24;;;;;;;13.65;7.20;;;;;;;10.24;84.06;101273.91;3126453;28;20069;-69
2022/11/13 04:14:55;;;;;;;14.48;8.32;;;;;;;10.26;84.47;101282.53;3127916;28;20470;-68
2022/11/13 04:16:27;;;;;;;14.35;7.40;;;;;;;10.27;84.49;101284.31;3132089;28;20053;-68
2022/11/13 04:17:59;;;;;;;14.52;7.97;;;;;;;9.86;84.20;101223.47;3130890;28;20064;-69
2022/11/13 04:19:30;;;;;;;12.45;7.28;;;;;;;10.27;84.12;101284.31;3132830;28;20101;-69
2022/11/13 04:21:04;;;;;;;15.55;8.05;;;;;;;10.27;84.33;101283.44;3128823;28;20045;-69
2022/11/13 04:22:35;;;;;;;;;;;;;;;10.20;84.53;101283.53;3122137;28;20049;-69
2022/11/13 04:24:07;;;;;;;14.20;7.57;;;;;;;10.17;84.44;101286.19;3128759;28;19921;-68
2022/11/13 04:25:38;;;;;;;13.43;7.60;;;;;;;10.20;84.85;101285.25;3132766;28;20071;-68
2022/11/13 04:27:11;;;;;;;17.88;8.05;;;;;;;10.22;84.39;101291.31;3131472;28;20041;-68
2022/11/13 04:28:43;;;;;;;13.60;7.82;;;;;;;10.20;84.75;101287.88;3127084;28;20045;-68
2022/11/13 04:30:14;;;;;;;15.63;8.15;;;;;;;10.20;84.53;101299.16;3127921;28;20775;-68
2022/11/13 04:31:46;;;;;;;16.38;7.57;;;;;;;10.21;84.87;101292.19;3122633;28;20474;-68
2022/11/13 04:33:18;;;;;;;14.40;8.02;;;;;;;10.18;84.54;101289.66;3126280;28;20446;-70
2022/11/13 04:34:50;;;;;;;14.82;8.88;;;;;;;10.20;84.58;101293.97;3130396;28;20045;-68
2022/11/13 04:36:22;;;;;;;15.75;8.50;;;;;;;10.20;84.64;101295.66;3129962;28;20061;-70
2022/11/13 04:37:54;;;;;;;15.02;8.40;;;;;;;10.19;84.85;101300.03;3125362;28;20045;-70
2022/11/13 04:39:26;;;;;;;18.17;8.63;;;;;;;10.19;85.14;101292.22;3129544;28;20049;-70
2022/11/13 04:42:49;;;;;;;16.25;8.15;;;;;;;10.19;85.17;101299.19;3125889;28;20067;-69
2022/11/13 04:44:21;;;;;;;13.93;7.38;;;;;;;10.17;84.84;101295.72;3131256;28;20064;-69
2022/11/13 04:45:53;;;;;;;15.80;8.20;;;;;;;10.19;85.01;101300.03;3130515;28;20045;-69
2022/11/13 04:47:24;;;;;;;15.90;8.25;;;;;;;10.20;85.06;101301.75;3131665;28;20052;-68
2022/11/13 04:48:56;;;;;;;15.05;7.63;;;;;;;10.19;84.78;101297.44;3128074;28;20571;-69
2022/11/13 04:50:28;;;;;;;16.83;8.40;;;;;;;10.18;85.09;101300.06;3132143;28;20056;-69
2022/11/13 04:52:00;;;;;;;16.33;7.95;;;;;;;10.19;84.82;101301.78;3130408;28;20138;-69
2022/11/13 04:53:31;;;;;;;13.60;7.68;;;;;;;10.17;84.82;101301.78;3124750;28;20053;-69
2022/11/13 04:55:03;;;;;;;17.45;7.97;;;;;;;10.18;84.99;101306.13;3128931;28;20053;-69
2022/11/13 04:56:35;;;;;;;16.40;8.00;;;;;;;10.19;84.81;101307.84;3131728;28;20053;-69
2022/11/13 04:58:08;;;;;;;16.55;8.95;;;;;;;10.16;85.17;101300.09;3130267;28;20509;-69
2022/11/13 04:59:40;;;;;;;16.77;9.05;;;;;;;10.13;85.24;101294.94;3127624;28;20049;-69
2022/11/13 05:01:12;;;;;;;16.50;8.70;;;;;;;10.18;84.96;101300.94;3125677;28;20084;-69
2022/11/13 05:02:43;;;;;;;18.95;9.25;;;;;;;10.17;85.16;101299.19;3130703;28;20483;-69
2022/11/13 05:04:15;;;;;;;19.15;9.73;;;;;;;10.17;85.18;101300.94;3130568;28;20048;-69
2022/11/13 05:05:47;;;;;;;17.48;8.82;;;;;;;10.18;85.20;101305.28;3131891;28;20052;-69
2022/11/13 05:07:19;;;;;;;14.70;8.32;;;;;;;10.12;85.12;101290.63;3127883;28;20134;-69
2022/11/13 05:08:50;;;;;;;19.50;9.75;;;;;;;10.07;84.98;101289.84;3129844;28;20118;-69
2022/11/13 05:10:22;;;;;;;17.10;8.40;;;;;;;10.17;85.01;101304.41;3123386;28;20671;-68
2022/11/13 05:11:54;;;;;;;15.00;8.40;;;;;;;10.18;84.98;101297.47;3121334;28;20060;-68
2022/11/13 05:13:30;;;;;;;15.52;8.93;;;;;;;9.85;85.05;101250.38;3123179;28;20048;-68
2022/11/13 05:15:02;;;;;;;18.60;8.75;;;;;;;10.17;85.05;101307.00;3123675;28;20045;-68
2022/11/13 05:16:35;;;;;;;17.58;8.63;;;;;;;10.07;85.10;101289.84;3122226;28;20628;-68
2022/11/13 05:18:07;;;;;;;17.85;9.15;;;;;;;10.11;85.33;101293.25;3120869;28;20053;-67
2022/11/13 05:19:38;;;;;;;19.52;8.93;;;;;;;10.12;85.03;101298.44;3115779;28;20045;-68
2022/11/13 05:21:11;;;;;;;19.42;8.90;;;;;;;9.89;85.04;101257.25;3116422;28;20652;-68
2022/11/13 05:22:43;;;;;;;16.45;8.55;;;;;;;10.16;85.43;101307.03;3115435;28;20045;-68
2022/11/13 05:24:15;;;;;;;17.52;8.50;;;;;;;10.14;85.29;101298.41;3120756;28;20142;-68
2022/11/13 05:25:47;;;;;;;16.35;7.95;;;;;;;10.12;85.16;101301.03;3122266;28;20386;-68
2022/11/13 05:27:19;;;;;;;18.13;9.30;;;;;;;10.14;85.13;101301.84;3121492;28;20546;-68
2022/11/13 05:28:51;;;;;;;15.70;8.60;;;;;;;10.15;85.45;101305.34;3117555;28;20056;-68
2022/11/13 05:30:23;;;;;;;15.65;8.60;;;;;;;10.16;85.55;101304.44;3119020;28;20132;-68
2022/11/13 05:31:55;;;;;;;16.77;9.23;;;;;;;10.13;85.25;101301.91;3121462;28;20795;-68
2022/11/13 05:33:28;;;;;;;18.23;9.35;;;;;;;10.17;85.33;101306.16;3114980;28;20748;-68
2022/11/13 05:35:00;;;;;;;16.90;9.02;;;;;;;10.17;85.38;101308.75;3114045;28;20086;-67
2022/11/13 05:36:32;;;;;;;17.23;9.63;;;;;;;10.15;85.47;101305.34;3120876;28;20059;-70
2022/11/13 05:38:04;;;;;;;17.20;9.55;;;;;;;10.18;85.13;101306.13;3121420;28;20048;-67
2022/11/13 05:39:36;;;;;;;18.25;9.38;;;;;;;10.18;85.36;101316.53;3122804;28;20048;-69
2022/11/13 05:41:10;;;;;;;17.27;9.88;;;;;;;10.20;85.14;101314.78;3120389;28;20760;-69
2022/11/13 05:42:42;;;;;;;16.45;8.18;;;;;;;10.21;85.38;101313.03;3120474;28;20421;-69
2022/11/13 05:44:15;;;;;;;15.15;8.50;;;;;;;10.24;85.20;101313.81;3119220;28;20056;-69
2022/11/13 05:45:46;;;;;;;20.02;10.38;;;;;;;10.25;85.50;101314.69;3118979;28;20111;-70
2022/11/13 05:47:18;;;;;;;20.50;9.65;;;;;;;10.27;85.36;101315.53;3117035;28;20121;-69
2022/11/13 05:48:53;;;;;;;20.23;10.00;;;;;;;10.29;85.65;101318.09;3114835;28;20178;-70
2022/11/13 05:50:25;;;;;;;18.58;9.77;;;;;;;10.28;85.75;101311.19;3119348;28;20492;-70
2022/11/13 05:51:57;;;;;;;20.70;10.02;;;;;;;10.28;85.66;101317.25;3120798;28;20283;-70
2022/11/13 05:53:28;;;;;;;17.25;9.95;;;;;;;10.27;85.52;101312.09;3119347;28;20473;-70
2022/11/13 05:55:00;;;;;;;17.30;9.32;;;;;;;10.26;85.87;101316.38;3120206;28;20132;-66
2022/11/13 05:56:34;;;;;;;19.35;9.75;;;;;;;10.27;85.60;101312.09;3117890;28;20045;-69
2022/11/13 05:58:06;;;;;;;18.33;9.30;;;;;;;10.24;85.77;101311.22;3122533;28;20053;-70
2022/11/13 05:59:39;;;;;;;21.30;10.90;;;;;;;10.25;85.39;101312.94;3121229;28;20076;-70
2022/11/13 06:01:11;;;;;;;;;;;;;;;10.17;85.45;101320.00;3121977;28;20049;-70
2022/11/13 06:02:44;;;;;;;17.80;9.13;;;;;;;10.17;85.68;101320.00;3117700;28;19932;-70
2022/11/13 06:04:16;;;;;;;17.73;9.02;;;;;;;10.17;85.79;101313.97;3118724;28;20673;-70
2022/11/13 06:05:47;;;;;;;18.65;9.57;;;;;;;10.21;85.29;101321.69;3116495;28;20087;-68
2022/11/13 06:07:19;;;;;;;17.50;9.68;;;;;;;10.23;85.66;101319.94;3119783;28;20127;-71
2022/11/13 06:08:53;;;;;;;21.80;10.25;;;;;;;10.22;85.62;101323.41;3114728;28;20099;-70
2022/11/13 06:10:25;;;;;;;21.08;11.02;;;;;;;10.28;85.34;101327.66;3121926;28;20515;-70
2022/11/13 06:11:57;;;;;;;17.75;10.30;;;;;;;10.26;85.56;101316.38;3119584;28;20053;-68
2022/11/13 06:13:28;;;;;;;22.98;11.80;;;;;;;10.35;85.75;101331.00;3118020;28;20148;-69
2022/11/13 06:15:01;;;;;;;24.75;11.27;;;;;;;10.37;85.35;101334.44;3120510;28;20768;-69
2022/11/13 06:16:36;;;;;;;19.67;10.77;;;;;;;10.41;85.70;101336.09;3119861;28;20462;-69
2022/11/13 06:18:07;;;;;;;20.08;10.98;;;;;;;10.47;85.31;101336.84;3118191;28;20063;-69
2022/11/13 06:19:39;;;;;;;26.45;11.85;;;;;;;10.59;85.76;101337.47;3120035;28;20056;-69
2022/11/13 06:21:14;;;;;;;24.42;11.90;;;;;;;10.77;85.46;101339.69;3122645;28;20053;-68
2022/11/13 06:22:46;;;;;;;22.48;12.00;;;;;;;10.92;85.32;101336.75;3122199;28;20350;-70
2022/11/13 06:24:18;;;;;;;19.65;11.07;;;;;;;11.08;85.15;101332.03;3120425;28;20108;-71
2022/11/13 06:25:49;;;;;;;22.75;11.85;;;;;;;11.19;84.73;101324.00;3123617;28;20119;-74
2022/11/13 06:27:21;;;;;;;20.95;11.43;;;;;;;11.30;84.24;101326.34;3122150;28;20533;-72
2022/11/13 06:28:54;;;;;;;21.30;10.95;;;;;;;11.34;84.13;101325.38;3121648;28;20048;-71
2022/11/13 06:30:27;;;;;;;21.50;11.50;;;;;;;11.38;84.08;101324.41;3119298;28;20622;-72
2022/11/13 06:31:59;;;;;;;;;;;;;;;11.51;83.67;101335.41;3122318;28;20059;-71
2022/11/13 06:33:30;;;;;;;18.40;10.90;;;;;;;11.69;83.42;101327.13;3122564;28;19936;-70
2022/11/13 06:35:02;;;;;;;22.17;11.25;;;;;;;12.00;82.92;101334.19;3114743;28;20045;-70
2022/11/13 06:36:36;;;;;;;19.33;10.80;;;;;;;12.36;82.47;101331.44;3121023;28;20540;-70
2022/11/13 06:38:07;;;;;;;19.83;10.88;;;;;;;12.67;81.63;101339.28;3116946;28;20072;-70
2022/11/13 06:39:39;;;;;;;21.23;11.10;;;;;;;12.96;81.13;101335.81;3121575;28;20063;-71
2022/11/13 06:41:13;;;;;;;23.38;12.05;;;;;;;13.34;80.39;101333.75;3121073;28;20228;-68
2022/11/13 06:42:45;;;;;;;22.60;11.75;;;;;;;13.75;79.94;101332.38;3119953;28;20196;-69
2022/11/13 06:44:17;;;;;;;18.92;10.60;;;;;;;14.17;78.86;101330.94;3118130;28;20057;-70
2022/11/13 06:45:50;;;;;;;22.45;10.75;;;;;;;14.57;78.08;101330.41;3113174;28;20130;-70
2022/11/13 06:47:22;;;;;;;19.45;9.73;;;;;;;14.85;76.92;101335.47;3115879;28;20058;-69
2022/11/13 06:48:54;;;;;;;18.95;9.93;;;;;;;15.09;75.89;101332.81;3121827;28;20507;-70
2022/11/13 06:50:26;;;;;;;17.13;9.50;;;;;;;15.41;74.94;101326.22;3121831;28;20041;-72
2022/11/13 06:51:59;;;;;;;23.75;14.18;;;;;;;15.72;73.70;101327.63;3119519;28;20060;-69
2022/11/13 06:53:31;;;;;;;99.57;54.88;;;;;;;15.93;72.57;101321.47;3123273;28;20196;-70
2022/11/13 06:55:03;;;;;;;142.70;75.55;;;;;;;15.99;71.69;101318.56;3122509;28;20057;-70
2022/11/13 06:56:44;;;;;;;146.13;80.50;;;;;;;15.91;71.12;101294.38;3121616;28;20167;-70
2022/11/13 06:58:16;;;;;;;23.95;14.43;;;;;;;16.22;70.54;101324.59;3120354;28;20514;-68
2022/11/13 06:59:48;;;;;;;54.10;31.43;;;;;;;16.44;69.83;101316.59;3122285;28;20048;-69
2022/11/13 07:01:24;;;;;;;79.32;49.38;;;;;;;16.67;68.19;101320.78;3120626;28;20327;-71
2022/11/13 07:02:56;;;;;;;14.45;9.23;;;;;;;16.90;66.91;101317.97;3115421;28;20048;-70
2022/11/13 07:04:28;;;;;;;9.35;6.20;;;;;;;17.13;65.59;101311.63;3119423;28;20045;-70
2022/11/13 07:06:01;;;;;;;11.50;6.22;;;;;;;17.40;64.66;101314.69;3123712;28;20064;-72
2022/11/13 07:07:33;;;;;;;14.05;7.43;;;;;;;17.71;64.02;101308.69;3123034;28;20761;-72